Observations for MILDENHALL RAF, United Kingdom (EGUN)

EGUN 250256Z AUTO 23003KT 9999 CLR 00/00 A2986 RMK AO2 SLP115 T10011001 55002 $ 
EGUN 250256Z AUTO 23003KT 9999 CLR 00/00 A2986 RMK AO2 SLP115 T10011001 55002 .
EGUN 250156Z AUTO 22006KT 9999 CLR 00/00 A2986 RMK AO2 SLP115 T10031003 $   
EGUN 250156Z AUTO 22006KT 9999 CLR 00/00 A2986 RMK AO2 SLP115 T10031003 .
EGUN 250056Z AUTO 00000KT 9999 CLR M01/M01 A2986 RMK AO2 SLP115 T10071007 $ 
EGUN 250056Z AUTO 00000KT 9999 CLR M01/M01 A2986 RMK AO2 SLP115 T10071007 .
EGUN 242356Z AUTO 19004KT 9999 CLR M01/M01 A2987 RMK AO2 SLP119 T10101010 10011 21022 400801022 57003 $ 
EGUN 242256Z AUTO 18004KT 9999 CLR M02/M02 A2988 RMK AO2 SLP122 T10171017 $ 
EGUN 242256Z AUTO 18004KT 9999 CLR M02/M02 A2988 RMK AO2 SLP122 T10171017 .
EGUN 242156Z AUTO 17004KT 9999 CLR M02/M02 A2988 RMK AO2 SLP122 T10171017 $ 
EGUN 242156Z AUTO 17004KT 9999 CLR M02/M02 A2988 RMK AO2 SLP122 T10171017 .
EGUN 242056Z AUTO 00000KT 9999 CLR M01/M01 A2988 RMK AO2 SLP122 T10091009 50002 $   
EGUN 242056Z AUTO 00000KT 9999 CLR M01/M01 A2988 RMK AO2 SLP122 T10091009 50002.
EGUN 241956Z AUTO 00000KT 9999 CLR 00/00 A2988 RMK AO2 SLP122 T10041004 $   
EGUN 241956Z AUTO 00000KT 9999 CLR 00/00 A2988 RMK AO2 SLP122 T10041004 .
EGUN 241856Z AUTO 18003KT 9999 CLR 01/01 A2988 RMK AO2 SLP122 T00070007 $   
EGUN 241856Z AUTO 18003KT 9999 CLR 01/01 A2988 RMK AO2 SLP122 T00070007 .
EGUN 241756Z AUTO 18003KT 9999 CLR 01/01 A2987 RMK AO2 SLP119 T00120012 10080 20006 51004 $ 
EGUN 241756Z AUTO 18003KT 9999 CLR 01/01 A2987 RMK AO2 SLP119 T00120012 10080 20006 51004 .
EGUN 241656Z AUTO 00000KT 9999 CLR 02/02 A2987 RMK AO2 SLP119 T00230023 $   
EGUN 241656Z AUTO 00000KT 9999 CLR 02/02 A2987 RMK AO2 SLP119 T00230023 .
EGUN 241556Z AUTO 22003KT 9999 CLR 05/05 A2986 RMK AO2 SLP115 T00490048 $   
EGUN 241556Z AUTO 22003KT 9999 CLR 05/05 A2986 RMK AO2 SLP115 T00490048 .
EGUN 241456Z AUTO 23003KT 9999 FEW180 05/05 A2986 RMK AO2 SLP115 T00540054 50005 $  
EGUN 241456Z AUTO 23003KT 9999 FEW180 05/05 A2986 RMK AO2 SLP115 T00540054 50005 .
EGUN 241356Z AUTO 27005KT 9999 CLR 06/04 A2985 RMK AO2 SLP112 T00560041 $   
EGUN 241356Z AUTO 27005KT 9999 CLR 06/04 A2985 RMK AO2 SLP112 T00560041 .
EGUN 241256Z AUTO 28004KT 9999 CLR 08/05 A2985 RMK AO2 SLP112 T00750045 $   
EGUN 241256Z AUTO 28004KT 9999 CLR 08/05 A2985 RMK AO2 SLP112 T00750045 .
EGUN 241156Z AUTO 27005KT 9999 CLR 07/06 A2985 RMK AO2 SLP112 T00690060 10071 20011 52014 $ 
EGUN 241156Z AUTO 27005KT 9999 CLR 07/06 A2985 RMK AO2 SLP112 T00690060 10071 20011 52014 .
EGUN 241056Z AUTO 29007KT 9999 CLR 07/07 A2984 RMK AO2 SLP108 T00710067 $   
EGUN 241056Z AUTO 29007KT 9999 CLR 07/07 A2984 RMK AO2 SLP108 T00710067 .
EGUN 240956Z AUTO 28006KT 9999 CLR 05/05 A2983 RMK AO2 SLP105 T00460046 $   
EGUN 240956Z AUTO 28006KT 9999 CLR 05/05 A2983 RMK AO2 SLP105 T00460046 .
EGUN 240856Z AUTO 21004KT 9999 CLR 02/02 A2981 RMK AO2 SLP098 T00170017 52023 $ 
EGUN 240856Z AUTO 21004KT 9999 CLR 02/02 A2981 RMK AO2 SLP098 T00170017 52023 .
EGUN 240806Z AUTO 25003KT 6000 M CLR 01/01 A2979 RMK AO2 SLP091 $
EGUN 240756Z AUTO 22004KT 3600 M CLR 01/01 A2978 RMK AO2 VIS 3600V9999 SLP088 T00120012 $   
EGUN 240756Z AUTO 22004KT 3600 M CLR 01/01 A2978 RMK AO2 VIS 3600V9999 SLP088 T00120012 .
EGUN 240656Z AUTO 24004KT 9999 FEW130 02/02 A2976 RMK AO2 SLP081 T00200020 $
EGUN 240656Z AUTO 24004KT 9999 FEW130 02/02 A2976 RMK AO2 SLP081 T00200020 .
EGUN 240556Z AUTO 25003KT 9999 SCT130 03/03 A2974 RMK AO2 SLP075 T00330033 10058 20030 52014 $  
EGUN 240556Z AUTO 25003KT 9999 SCT130 03/03 A2974 RMK AO2 SLP075 T00330033 10058 20030 52014 .
EGUN 240456Z AUTO 22004KT 9999 OVC120 03/03 A2972 RMK AO2 SLP068 T00340034 $
EGUN 240456Z AUTO 22004KT 9999 OVC120 03/03 A2972 RMK AO2 SLP068 T00340034 .
EGUN 240356Z AUTO 00000KT 9999 OVC120 05/05 A2970 RMK AO2 SLP061 T00470047 $
EGUN 240356Z AUTO 00000KT 9999 OVC120 05/05 A2970 RMK AO2 SLP061 T00470047 .
EGUN 240256Z AUTO 25003KT 9999 OVC100 05/05 A2970 RMK AO2 SLP061 T00480048 53005 $  
EGUN 240256Z AUTO 25003KT 9999 OVC100 05/05 A2970 RMK AO2 SLP061 T00480048 53005 .